createdAt,value
2019-05-29T00:01:59.226Z,13.6
2019-05-29T00:04:31.540Z,13.6
2019-05-29T00:07:03.898Z,13.6
2019-05-29T00:09:36.074Z,13.6
2019-05-29T00:12:21.282Z,13.7
2019-05-29T00:14:49.387Z,13.7
2019-05-29T00:17:21.701Z,13.7
2019-05-29T00:19:53.952Z,13.7
2019-05-29T00:22:26.694Z,13.7
2019-05-29T00:24:58.957Z,13.7
2019-05-29T00:27:31.376Z,13.7
2019-05-29T00:30:03.700Z,13.7
2019-05-29T00:32:38.275Z,13.7
2019-05-29T00:35:11.922Z,13.6
2019-05-29T00:37:44.844Z,13.6
2019-05-29T00:40:17.679Z,13.6
2019-05-29T00:42:50.337Z,13.6
2019-05-29T00:45:22.685Z,13.5
2019-05-29T00:47:55.086Z,13.5
2019-05-29T00:50:27.374Z,13.4
2019-05-29T00:52:59.840Z,13.4
2019-05-29T00:55:32.072Z,13.3
2019-05-29T00:58:04.418Z,13.3
2019-05-29T01:00:36.686Z,13
2019-05-29T01:03:10.114Z,13
2019-05-29T01:05:43.719Z,12.9
2019-05-29T01:08:17.017Z,12.9
2019-05-29T01:10:50.569Z,12.6
2019-05-29T01:13:22.899Z,12.6
2019-05-29T01:15:55.381Z,12.6
2019-05-29T01:18:27.951Z,12.6
2019-05-29T01:21:00.332Z,12.5
2019-05-29T01:23:32.800Z,12.5
2019-05-29T01:26:05.155Z,12.4
2019-05-29T01:28:37.731Z,12.4
2019-05-29T01:31:26.525Z,12.4
2019-05-29T01:34:00.524Z,12.4
2019-05-29T01:36:34.407Z,12.4
2019-05-29T01:39:08.276Z,12.4
2019-05-29T01:41:42.032Z,12.3
2019-05-29T01:44:17.060Z,12.3
2019-05-29T01:46:51.182Z,12.3
2019-05-29T01:49:25.199Z,12.3
2019-05-29T01:51:58.931Z,12.2
2019-05-29T01:54:32.957Z,12.2
2019-05-29T01:57:06.700Z,12.2
2019-05-29T01:59:40.539Z,12.2
2019-05-29T02:02:15.669Z,12.2
2019-05-29T02:04:48.216Z,12.2
2019-05-29T02:07:22.616Z,12.2
2019-05-29T02:09:56.338Z,12.2
2019-05-29T02:12:28.673Z,12.2
2019-05-29T02:15:01.274Z,12.2
2019-05-29T02:17:33.483Z,12.1
2019-05-29T02:20:06.220Z,12.1
2019-05-29T02:22:38.504Z,12.1
2019-05-29T02:25:10.952Z,12.2
2019-05-29T02:27:43.178Z,12.2
2019-05-29T02:30:22.794Z,12.2
2019-05-29T02:32:56.356Z,12.2
2019-05-29T02:35:30.197Z,12.2
2019-05-29T02:38:02.518Z,12.2
2019-05-29T02:40:35.255Z,12.3
2019-05-29T02:43:07.589Z,12.3
2019-05-29T02:45:55.675Z,12.3
2019-05-29T02:48:27.454Z,12.3
2019-05-29T02:51:01.961Z,12.3
2019-05-29T02:53:34.193Z,12.3
2019-05-29T02:56:06.995Z,12.3
2019-05-29T02:58:39.333Z,12.3
2019-05-29T03:01:11.877Z,12.4
2019-05-29T03:03:44.205Z,12.4
2019-05-29T03:06:16.718Z,12.4
2019-05-29T03:08:49.049Z,12.4
2019-05-29T03:11:28.878Z,12.3
2019-05-29T03:14:02.253Z,12.3
2019-05-29T03:16:35.497Z,12.3
2019-05-29T03:19:07.712Z,12.3
2019-05-29T03:21:40.051Z,12.3
2019-05-29T03:24:12.267Z,12.3
2019-05-29T03:26:44.718Z,12.3
2019-05-29T03:29:16.951Z,12.3
2019-05-29T03:31:47.478Z,12.4
2019-05-29T03:34:08.234Z,12.4
2019-05-29T03:36:49.611Z,12.4
2019-05-29T03:39:23.345Z,12.4
2019-05-29T03:41:57.347Z,12.4
2019-05-29T03:44:35.814Z,12.4
2019-05-29T03:47:09.619Z,12.4
2019-05-29T03:49:43.631Z,12.4
2019-05-29T03:52:17.540Z,12.4
2019-05-29T03:54:51.452Z,12.4
2019-05-29T03:57:29.431Z,12.4
2019-05-29T04:00:04.115Z,12.4
2019-05-29T04:02:38.884Z,12.4
2019-05-29T04:05:11.251Z,12.4
2019-05-29T04:07:43.495Z,12.4
2019-05-29T04:10:15.993Z,12.4
2019-05-29T04:12:48.257Z,12.4
2019-05-29T04:15:20.799Z,12.4
2019-05-29T04:17:53.127Z,12.4
2019-05-29T04:20:25.465Z,12.4
2019-05-29T04:22:57.757Z,12.4
2019-05-29T04:25:42.871Z,12.4
2019-05-29T04:28:11.535Z,12.4
2019-05-29T04:30:43.887Z,12.4
2019-05-29T04:33:16.483Z,12.4
2019-05-29T04:35:49.034Z,12.4
2019-05-29T04:38:21.306Z,12.4
2019-05-29T04:40:53.863Z,12.4
2019-05-29T04:43:29.272Z,12.4
2019-05-29T04:46:05.209Z,12.4
2019-05-29T04:48:40.924Z,12.4
2019-05-29T04:51:13.361Z,12.4
2019-05-29T04:53:45.699Z,12.4
2019-05-29T04:56:23.241Z,12.4
2019-05-29T04:58:55.559Z,12.4
2019-05-29T05:01:29.489Z,12.5
2019-05-29T05:04:03.040Z,12.5
2019-05-29T05:06:35.862Z,12.5
2019-05-29T05:09:08.245Z,12.5
2019-05-29T05:11:40.867Z,12.5
2019-05-29T05:14:13.370Z,12.6
2019-05-29T05:16:45.895Z,12.6
2019-05-29T05:19:18.495Z,12.6
2019-05-29T05:21:50.963Z,12.6
2019-05-29T05:24:23.281Z,12.6
2019-05-29T05:26:56.109Z,12.6
2019-05-29T05:29:30.262Z,12.6
2019-05-29T05:31:26.313Z,12.6
2019-05-29T05:34:00.207Z,12.6
2019-05-29T05:36:35.178Z,12.6
2019-05-29T05:39:08.921Z,12.6
2019-05-29T05:41:42.618Z,12.6
2019-05-29T05:44:16.620Z,12.6
2019-05-29T05:46:50.491Z,12.6
2019-05-29T05:49:24.521Z,12.6
2019-05-29T05:51:58.247Z,12.7
2019-05-29T05:54:33.694Z,12.7
2019-05-29T05:57:07.916Z,12.7
2019-05-29T05:59:40.475Z,12.7
2019-05-29T06:02:14.086Z,12.7
2019-05-29T06:04:46.496Z,12.7
2019-05-29T06:07:18.851Z,12.7
2019-05-29T06:09:51.450Z,12.7
2019-05-29T06:12:23.804Z,12.7
2019-05-29T06:14:56.204Z,12.7
2019-05-29T06:17:28.614Z,12.7
2019-05-29T06:20:01.099Z,12.7
2019-05-29T06:22:34.658Z,12.7
2019-05-29T06:25:07.546Z,12.7
2019-05-29T06:27:41.235Z,12.7
2019-05-29T06:30:13.925Z,12.7
2019-05-29T06:32:46.181Z,12.7
2019-05-29T06:35:18.933Z,12.7
2019-05-29T06:37:51.469Z,12.7
2019-05-29T06:40:23.888Z,12.7
2019-05-29T06:42:56.155Z,12.7
2019-05-29T06:45:28.592Z,12.7
2019-05-29T06:48:01.064Z,12.7
2019-05-29T06:50:33.572Z,12.7
2019-05-29T06:53:07.435Z,12.8
2019-05-29T06:55:41.590Z,12.8
2019-05-29T06:58:14.575Z,12.8
2019-05-29T07:00:47.357Z,12.9
2019-05-29T07:03:19.613Z,12.9
2019-05-29T07:05:53.592Z,12.9
2019-05-29T07:08:50.136Z,12.9
2019-05-29T07:11:07.085Z,13
2019-05-29T07:13:50.817Z,13
2019-05-29T07:16:20.877Z,13.1
2019-05-29T07:19:59.035Z,13.1
2019-05-29T07:21:34.335Z,13.1
2019-05-29T07:24:06.742Z,13.1
2019-05-29T07:26:39.493Z,13.1
2019-05-29T07:29:13.232Z,13.2
2019-05-29T07:31:26.046Z,13.2
2019-05-29T07:34:00.250Z,13.2
2019-05-29T07:36:34.093Z,13.2
2019-05-29T07:39:08.274Z,13.2
2019-05-29T07:41:41.827Z,13.2
2019-05-29T07:44:14.439Z,13.2
2019-05-29T07:46:49.505Z,13.2
2019-05-29T07:49:46.536Z,13.2
2019-05-29T07:52:02.697Z,13.5
2019-05-29T07:54:35.428Z,13.5
2019-05-29T07:57:07.921Z,13.5
2019-05-29T07:59:41.022Z,13.5
2019-05-29T08:02:13.688Z,13.7
2019-05-29T08:04:47.682Z,13.7
2019-05-29T08:07:22.008Z,13.8
2019-05-29T08:09:54.412Z,13.8
2019-05-29T08:12:26.736Z,14
2019-05-29T08:14:59.290Z,14
2019-05-29T08:17:31.862Z,14
2019-05-29T08:20:08.562Z,14
2019-05-29T08:22:41.111Z,14.2
2019-05-29T08:25:14.923Z,14.2
2019-05-29T08:27:48.748Z,14.2
2019-05-29T08:30:21.390Z,14.3
2019-05-29T08:32:53.719Z,14.3
2019-05-29T08:35:26.243Z,14.3
2019-05-29T08:37:58.512Z,14.3
2019-05-29T08:40:31.004Z,14.3
2019-05-29T08:43:03.267Z,14.3
2019-05-29T08:45:35.831Z,14.3
2019-05-29T08:48:08.937Z,14.3
2019-05-29T08:50:42.094Z,14.5
2019-05-29T08:53:14.653Z,14.5
2019-05-29T08:55:50.942Z,14.5
2019-05-29T08:58:25.019Z,14.5
2019-05-29T09:00:57.698Z,14.8
2019-05-29T09:03:30.623Z,14.8
2019-05-29T09:06:14.043Z,14.9
2019-05-29T09:08:51.722Z,14.9
2019-05-29T09:11:25.267Z,14.9
2019-05-29T09:13:57.564Z,14.9
2019-05-29T09:16:30.260Z,15
2019-05-29T09:19:02.793Z,15
2019-05-29T09:21:35.449Z,15.1
2019-05-29T09:24:07.782Z,15.1
2019-05-29T09:26:40.190Z,15.2
2019-05-29T09:29:24.981Z,15.2
2019-05-29T09:31:26.100Z,15.3
2019-05-29T09:34:00.399Z,15.3
2019-05-29T09:36:34.264Z,15.5
2019-05-29T09:39:08.309Z,15.5
2019-05-29T09:41:42.186Z,15.6
2019-05-29T09:44:40.373Z,15.6
2019-05-29T09:46:58.491Z,15.7
2019-05-29T09:49:32.900Z,15.7
2019-05-29T09:52:06.903Z,15.9
2019-05-29T09:54:40.920Z,15.9
2019-05-29T09:57:16.031Z,16
2019-05-29T09:59:50.057Z,16
2019-05-29T10:02:23.893Z,16
2019-05-29T10:05:04.254Z,16
2019-05-29T10:07:37.968Z,16
2019-05-29T10:10:11.956Z,16.2
2019-05-29T10:12:45.950Z,16.2
2019-05-29T10:15:19.808Z,16
2019-05-29T10:17:58.630Z,16
2019-05-29T10:20:32.973Z,16.2
2019-05-29T10:23:06.815Z,16.2
2019-05-29T10:25:41.024Z,16.1
2019-05-29T10:28:14.797Z,16.1
2019-05-29T10:30:52.979Z,16.1
2019-05-29T10:33:25.316Z,16.1
2019-05-29T10:35:58.256Z,16.2
2019-05-29T10:38:30.756Z,16.2
2019-05-29T10:41:07.964Z,16.2
2019-05-29T10:43:40.461Z,16.2
2019-05-29T10:46:13.266Z,16.2
2019-05-29T10:48:56.605Z,16.2
2019-05-29T10:51:27.022Z,16.3
2019-05-29T10:53:59.968Z,16.3
2019-05-29T10:56:32.681Z,16.4
2019-05-29T10:59:05.364Z,16.4
2019-05-29T11:01:38.103Z,16.5
2019-05-29T11:04:10.799Z,16.5
2019-05-29T11:06:43.503Z,16.5
2019-05-29T11:09:16.126Z,16.5
2019-05-29T11:11:57.350Z,16.6
2019-05-29T11:14:30.545Z,16.6
2019-05-29T11:17:02.953Z,16.7
2019-05-29T11:19:35.274Z,16.7
2019-05-29T11:22:27.117Z,16.8
2019-05-29T11:24:50.132Z,16.8
2019-05-29T11:27:26.732Z,16.7
2019-05-29T11:29:59.716Z,16.7
2019-05-29T11:31:26.441Z,16.8
2019-05-29T11:34:00.344Z,16.8
2019-05-29T11:36:34.121Z,16.8
2019-05-29T11:39:07.931Z,16.8
2019-05-29T11:41:41.726Z,16.7
2019-05-29T11:44:15.860Z,16.7
2019-05-29T11:46:52.293Z,16.7
2019-05-29T11:49:26.344Z,16.7
2019-05-29T11:52:43.199Z,16.7
2019-05-29T11:54:42.719Z,16.7
2019-05-29T11:57:16.590Z,16.7
2019-05-29T11:59:52.372Z,16.7
2019-05-29T12:02:26.116Z,16.8
2019-05-29T12:05:04.223Z,16.8
2019-05-29T12:07:36.660Z,16.9
2019-05-29T12:10:10.207Z,17.1
2019-05-29T12:12:43.166Z,17.1
2019-05-29T12:15:19.384Z,17.1
2019-05-29T12:18:24.965Z,17.1
2019-05-29T12:20:31.683Z,17.1
2019-05-29T12:23:27.582Z,17.1
2019-05-29T12:25:44.260Z,17
2019-05-29T12:28:15.961Z,17
2019-05-29T12:30:47.715Z,16.9
2019-05-29T12:33:19.450Z,16.9
2019-05-29T12:35:51.348Z,16.9
2019-05-29T12:38:24.440Z,16.9
2019-05-29T12:40:59.993Z,16.8
2019-05-29T12:43:33.319Z,16.7
2019-05-29T12:46:05.686Z,16.7
2019-05-29T12:48:40.423Z,16.7
2019-05-29T12:51:12.311Z,16.9
2019-05-29T12:53:43.933Z,16.9
2019-05-29T12:56:15.864Z,16.8
2019-05-29T12:58:47.708Z,16.8
2019-05-29T13:01:19.497Z,16.9
2019-05-29T13:03:51.172Z,16.9
2019-05-29T13:06:22.969Z,16.9
2019-05-29T13:08:56.607Z,16.9
2019-05-29T13:11:28.411Z,16.8
2019-05-29T13:14:01.105Z,16.8
2019-05-29T13:16:32.863Z,16.7
2019-05-29T13:19:06.152Z,16.7
2019-05-29T13:21:37.927Z,16.9
2019-05-29T13:24:12.243Z,16.9
2019-05-29T13:26:44.074Z,17.1
2019-05-29T13:29:15.771Z,17.1
2019-05-29T13:31:26.826Z,17.2
2019-05-29T13:34:00.679Z,17.2
2019-05-29T13:36:35.878Z,17.2
2019-05-29T13:39:09.718Z,17.2
2019-05-29T13:41:43.816Z,17.3
2019-05-29T13:44:17.981Z,17.3
2019-05-29T13:46:52.016Z,17.3
2019-05-29T13:49:25.992Z,17.3
2019-05-29T13:52:04.359Z,17.4
2019-05-29T13:54:42.470Z,17.4
2019-05-29T13:57:16.807Z,17.4
2019-05-29T13:59:50.766Z,17.4
2019-05-29T14:02:24.604Z,17.4
2019-05-29T14:04:59.975Z,17.4
2019-05-29T14:07:34.387Z,17.5
2019-05-29T14:10:10.142Z,17.5
2019-05-29T14:12:44.068Z,17.5
2019-05-29T14:15:18.348Z,17.4
2019-05-29T14:17:50.779Z,17.4
2019-05-29T14:20:23.530Z,17.4
2019-05-29T14:22:56.151Z,17.4
2019-05-29T14:25:28.543Z,17.3
2019-05-29T14:28:02.812Z,17.3
2019-05-29T14:30:35.472Z,17.4
2019-05-29T14:33:15.464Z,17.4
2019-05-29T14:35:48.159Z,17.4
2019-05-29T14:38:20.675Z,17.4
2019-05-29T14:40:53.276Z,17.4
2019-05-29T14:43:26.004Z,17.4
2019-05-29T14:45:58.643Z,17.4
2019-05-29T14:48:31.441Z,17.4
2019-05-29T14:51:06.944Z,17.4
2019-05-29T14:53:40.684Z,17.4
2019-05-29T14:56:13.287Z,17.4
2019-05-29T14:58:45.762Z,17.4
2019-05-29T15:01:18.446Z,17.4
2019-05-29T15:03:50.748Z,17.4
2019-05-29T15:06:23.395Z,17.4
2019-05-29T15:08:55.950Z,17.4
2019-05-29T15:11:28.541Z,17.4
2019-05-29T15:14:01.369Z,17.4
2019-05-29T15:16:33.737Z,17.4
2019-05-29T15:19:07.423Z,17.4
2019-05-29T15:21:41.257Z,17.4
2019-05-29T15:24:14.188Z,17.4
2019-05-29T15:26:48.405Z,17.4
2019-05-29T15:29:21.198Z,17.4
2019-05-29T15:31:25.920Z,17.4
2019-05-29T15:33:59.744Z,17.4
2019-05-29T15:36:33.595Z,17.4
2019-05-29T15:39:08.688Z,17.4
2019-05-29T15:41:42.623Z,17.4
2019-05-29T15:44:17.807Z,17.4
2019-05-29T15:46:50.251Z,17.3
2019-05-29T15:49:22.762Z,17.3
2019-05-29T15:51:55.107Z,17.3
2019-05-29T15:54:28.041Z,17.3
2019-05-29T15:57:00.590Z,17.3
2019-05-29T15:59:32.929Z,17.3
2019-05-29T16:02:05.761Z,17.3
2019-05-29T16:04:39.758Z,17.3
2019-05-29T16:07:12.486Z,17.2
2019-05-29T16:09:46.479Z,17.2
2019-05-29T16:12:19.605Z,17.3
2019-05-29T16:14:52.202Z,17.3
2019-05-29T16:17:25.007Z,17.2
2019-05-29T16:19:57.555Z,17.2
2019-05-29T16:22:29.818Z,17.2
2019-05-29T16:25:02.574Z,17.2
2019-05-29T16:27:34.916Z,17.1
2019-05-29T16:30:07.493Z,17.1
2019-05-29T16:32:39.884Z,17
2019-05-29T16:35:14.759Z,17
2019-05-29T16:37:47.382Z,17
2019-05-29T16:40:21.611Z,17
2019-05-29T16:42:54.342Z,17
2019-05-29T16:45:26.932Z,17
2019-05-29T16:48:00.065Z,17
2019-05-29T16:50:32.813Z,17
2019-05-29T16:53:05.188Z,17
2019-05-29T16:55:54.665Z,17
2019-05-29T16:58:21.595Z,17
2019-05-29T17:00:54.222Z,17.1
2019-05-29T17:03:27.062Z,17.1
2019-05-29T17:05:59.673Z,17.1
2019-05-29T17:08:32.118Z,17.1
2019-05-29T17:11:05.696Z,17
2019-05-29T17:13:38.054Z,17
2019-05-29T17:16:11.134Z,17
2019-05-29T17:18:43.507Z,17
2019-05-29T17:21:17.039Z,17
2019-05-29T17:23:49.445Z,17
2019-05-29T17:26:23.211Z,17
2019-05-29T17:28:55.694Z,17
2019-05-29T17:31:26.631Z,16.9
2019-05-29T17:34:01.073Z,16.9
2019-05-29T17:36:35.496Z,17
2019-05-29T17:39:09.420Z,17
2019-05-29T17:41:43.458Z,16.9
2019-05-29T17:44:19.060Z,16.9
2019-05-29T17:46:53.336Z,16.9
2019-05-29T17:49:35.208Z,16.9
2019-05-29T17:52:09.602Z,16.9
2019-05-29T17:54:43.437Z,16.9
2019-05-29T17:57:20.024Z,16.9
2019-05-29T17:59:53.958Z,16.9
2019-05-29T18:02:28.067Z,16.8
2019-05-29T18:05:01.919Z,16.8
2019-05-29T18:07:35.943Z,16.8
2019-05-29T18:10:09.819Z,16.8
2019-05-29T18:12:44.866Z,16.8
2019-05-29T18:15:21.751Z,16.8
2019-05-29T18:17:55.691Z,16.8
2019-05-29T18:20:30.095Z,16.7
2019-05-29T18:23:04.142Z,16.7
2019-05-29T18:25:37.964Z,16.6
2019-05-29T18:28:11.922Z,16.6
2019-05-29T18:30:45.766Z,16.6
2019-05-29T18:33:21.059Z,16.5
2019-05-29T18:35:55.413Z,16.4
2019-05-29T18:38:29.551Z,16.4
2019-05-29T18:41:04.087Z,16.3
2019-05-29T18:43:38.484Z,16.3
2019-05-29T18:46:12.263Z,16.3
2019-05-29T18:48:46.312Z,16.3
2019-05-29T18:51:20.997Z,16.1
2019-05-29T18:53:56.433Z,16.1
2019-05-29T18:56:32.621Z,16.1
2019-05-29T18:59:05.201Z,16.1
2019-05-29T19:01:37.642Z,16
2019-05-29T19:04:10.305Z,16
2019-05-29T19:06:43.115Z,15.9
2019-05-29T19:09:16.459Z,15.9
2019-05-29T19:11:48.883Z,15.8
2019-05-29T19:14:22.312Z,15.8
2019-05-29T19:16:56.099Z,15.8
2019-05-29T19:19:30.413Z,15.8
2019-05-29T19:22:03.737Z,15.7
2019-05-29T19:24:36.743Z,15.7
2019-05-29T19:27:09.668Z,15.6
2019-05-29T19:29:42.735Z,15.6
2019-05-29T19:31:27.575Z,15.6
2019-05-29T19:34:02.870Z,15.6
2019-05-29T19:36:36.871Z,15.6
2019-05-29T19:39:11.467Z,15.6
2019-05-29T19:41:45.431Z,15.5
2019-05-29T19:44:19.504Z,15.5
2019-05-29T19:46:54.800Z,15.5
2019-05-29T19:49:29.440Z,15.5
2019-05-29T19:52:04.613Z,15.5
2019-05-29T19:57:11.631Z,15.5
2019-05-29T19:59:45.467Z,15.5
2019-05-29T20:02:19.646Z,15.5
2019-05-29T20:04:52.161Z,15.5
2019-05-29T20:07:24.675Z,15.5
2019-05-29T20:09:57.308Z,15.5
2019-05-29T20:12:30.192Z,15.5
2019-05-29T20:15:03.981Z,15.5
2019-05-29T20:17:36.857Z,15.5
2019-05-29T20:20:10.712Z,15.5
2019-05-29T20:22:43.793Z,15.4
2019-05-29T20:25:16.185Z,15.4
2019-05-29T20:27:48.961Z,15.4
2019-05-29T20:30:21.553Z,15.4
2019-05-29T20:32:54.240Z,15.4
2019-05-29T20:35:26.592Z,15.4
2019-05-29T20:37:59.155Z,15.4
2019-05-29T20:40:31.708Z,15.4
2019-05-29T20:43:05.275Z,15.3
2019-05-29T20:45:39.372Z,15.3
2019-05-29T20:48:12.855Z,15.3
2019-05-29T20:50:45.367Z,15.3
2019-05-29T20:53:18.646Z,15.3
2019-05-29T20:55:51.026Z,15.3
2019-05-29T20:58:25.661Z,15.2
2019-05-29T21:00:58.282Z,15.2
2019-05-29T21:03:32.379Z,15.2
2019-05-29T21:06:06.345Z,15.2
2019-05-29T21:08:39.536Z,15.1
2019-05-29T21:11:13.279Z,15.1
2019-05-29T21:13:46.095Z,15.1
2019-05-29T21:16:18.349Z,15.1
2019-05-29T21:18:51.527Z,15.1
2019-05-29T21:21:23.982Z,15.1
2019-05-29T21:23:56.831Z,15
2019-05-29T21:26:29.634Z,15
2019-05-29T21:29:02.896Z,15
2019-05-29T21:31:26.130Z,15
2019-05-29T21:34:00.066Z,14.9
2019-05-29T21:36:44.788Z,14.9
2019-05-29T21:39:25.912Z,14.9
2019-05-29T21:42:00.248Z,14.8
2019-05-29T21:44:34.392Z,14.8
2019-05-29T21:47:08.187Z,14.8
2019-05-29T21:49:41.537Z,14.7
2019-05-29T21:52:16.839Z,14.7
2019-05-29T21:54:49.389Z,14.6
2019-05-29T21:57:22.035Z,14.6
2019-05-29T21:59:55.179Z,14.5
2019-05-29T22:02:27.701Z,14.5
2019-05-29T22:05:00.182Z,14.5
2019-05-29T22:07:32.680Z,14.5
2019-05-29T22:10:05.244Z,14.4
2019-05-29T22:12:38.231Z,14.4
2019-05-29T22:15:10.891Z,14.4
2019-05-29T22:17:43.499Z,14.4
2019-05-29T22:20:16.174Z,14.3
2019-05-29T22:22:48.574Z,14.2
2019-05-29T22:25:20.875Z,14.2
2019-05-29T22:27:55.716Z,14.2
2019-05-29T22:30:28.477Z,14.1
2019-05-29T22:33:02.435Z,14.1
2019-05-29T22:35:34.724Z,14.1
2019-05-29T22:38:07.013Z,14.1
2019-05-29T22:40:39.335Z,14.1
2019-05-29T22:43:12.192Z,13.9
2019-05-29T22:45:44.775Z,13.9
2019-05-29T22:48:18.608Z,13.9
2019-05-29T22:50:52.158Z,13.9
2019-05-29T22:53:26.166Z,13.9
2019-05-29T22:55:59.716Z,13.9
2019-05-29T22:58:32.446Z,13.9
2019-05-29T23:01:05.204Z,13.9
2019-05-29T23:03:37.628Z,13.9
2019-05-29T23:06:09.975Z,13.9
2019-05-29T23:08:42.547Z,13.9
2019-05-29T23:11:15.045Z,13.9
2019-05-29T23:13:47.463Z,13.9
2019-05-29T23:16:20.029Z,13.9
2019-05-29T23:18:52.966Z,13.9
2019-05-29T23:21:26.467Z,13.9
2019-05-29T23:24:00.022Z,13.9
2019-05-29T23:26:32.933Z,13.9
2019-05-29T23:29:05.338Z,13.8
2019-05-29T23:31:25.675Z,13.8
2019-05-29T23:33:59.253Z,13.8
2019-05-29T23:36:31.651Z,13.8
2019-05-29T23:39:04.017Z,13.8
2019-05-29T23:41:36.619Z,13.8
2019-05-29T23:44:09.047Z,13.8
2019-05-29T23:46:41.391Z,13.8
2019-05-29T23:49:13.656Z,13.7
2019-05-29T23:56:49.098Z,13.7
2019-05-29T23:59:21.353Z,13.7
